sensor_id;sensor_type;location;lat;lon;timestamp;temperature;humidity
74155;DHT22;62509;46.248;6.018;2024-01-30T00:01:51;4.70;99.90
74155;DHT22;62509;46.248;6.018;2024-01-30T00:06:55;4.60;99.90
74155;DHT22;62509;46.248;6.018;2024-01-30T00:11:59;4.50;99.90
74155;DHT22;62509;46.248;6.018;2024-01-30T00:17:04;4.40;99.90
74155;DHT22;62509;46.248;6.018;2024-01-30T00:22:07;4.50;99.90
74155;DHT22;62509;46.248;6.018;2024-01-30T00:27:10;4.60;99.90
74155;DHT22;62509;46.248;6.018;2024-01-30T00:32:15;4.50;99.90
74155;DHT22;62509;46.248;6.018;2024-01-30T00:37:20;4.50;99.90
74155;DHT22;62509;46.248;6.018;2024-01-30T00:42:25;4.50;99.90
74155;DHT22;62509;46.248;6.018;2024-01-30T00:47:30;4.60;99.90
74155;DHT22;62509;46.248;6.018;2024-01-30T00:52:35;4.50;99.90
74155;DHT22;62509;46.248;6.018;2024-01-30T00:57:38;4.60;99.90
74155;DHT22;62509;46.248;6.018;2024-01-30T01:02:47;4.60;99.90
74155;DHT22;62509;46.248;6.018;2024-01-30T01:07:51;4.50;99.90
74155;DHT22;62509;46.248;6.018;2024-01-30T01:12:54;4.50;99.90
74155;DHT22;62509;46.248;6.018;2024-01-30T01:18:00;4.40;99.90
74155;DHT22;62509;46.248;6.018;2024-01-30T01:23:04;4.40;99.90
74155;DHT22;62509;46.248;6.018;2024-01-30T01:28:07;4.40;99.90
74155;DHT22;62509;46.248;6.018;2024-01-30T01:33:12;4.30;99.90
74155;DHT22;62509;46.248;6.018;2024-01-30T01:38:16;4.30;99.90
74155;DHT22;62509;46.248;6.018;2024-01-30T01:43:20;4.30;99.90
74155;DHT22;62509;46.248;6.018;2024-01-30T01:48:25;4.30;99.90
74155;DHT22;62509;46.248;6.018;2024-01-30T01:53:29;4.40;99.90
74155;DHT22;62509;46.248;6.018;2024-01-30T01:58:33;4.40;99.90
74155;DHT22;62509;46.248;6.018;2024-01-30T02:03:38;4.40;99.90
74155;DHT22;62509;46.248;6.018;2024-01-30T02:08:41;4.40;99.90
74155;DHT22;62509;46.248;6.018;2024-01-30T02:13:45;4.40;99.90
74155;DHT22;62509;46.248;6.018;2024-01-30T02:18:50;4.50;99.90
74155;DHT22;62509;46.248;6.018;2024-01-30T02:23:55;4.50;99.90
74155;DHT22;62509;46.248;6.018;2024-01-30T02:28:59;4.60;99.90
74155;DHT22;62509;46.248;6.018;2024-01-30T02:34:02;4.50;99.90
74155;DHT22;62509;46.248;6.018;2024-01-30T02:39:08;4.50;99.90
74155;DHT22;62509;46.248;6.018;2024-01-30T02:44:11;4.50;99.90
74155;DHT22;62509;46.248;6.018;2024-01-30T02:49:14;4.50;99.90
74155;DHT22;62509;46.248;6.018;2024-01-30T02:54:19;4.40;99.90
74155;DHT22;62509;46.248;6.018;2024-01-30T02:59:23;4.40;99.90
74155;DHT22;62509;46.248;6.018;2024-01-30T03:04:26;4.40;99.90
74155;DHT22;62509;46.248;6.018;2024-01-30T03:09:33;4.40;99.90
74155;DHT22;62509;46.248;6.018;2024-01-30T03:14:36;4.40;99.90
74155;DHT22;62509;46.248;6.018;2024-01-30T03:19:40;4.40;99.90
74155;DHT22;62509;46.248;6.018;2024-01-30T03:24:45;4.40;99.90
74155;DHT22;62509;46.248;6.018;2024-01-30T03:29:48;4.30;99.90
74155;DHT22;62509;46.248;6.018;2024-01-30T03:34:51;4.30;99.90
74155;DHT22;62509;46.248;6.018;2024-01-30T03:39:56;4.30;99.90
74155;DHT22;62509;46.248;6.018;2024-01-30T03:45:00;4.30;99.90
74155;DHT22;62509;46.248;6.018;2024-01-30T03:50:03;4.30;99.90
74155;DHT22;62509;46.248;6.018;2024-01-30T03:55:10;4.20;99.90
74155;DHT22;62509;46.248;6.018;2024-01-30T04:00:14;4.30;99.90
74155;DHT22;62509;46.248;6.018;2024-01-30T04:05:18;4.30;99.90
74155;DHT22;62509;46.248;6.018;2024-01-30T04:10:23;4.30;99.90
74155;DHT22;62509;46.248;6.018;2024-01-30T04:15:26;4.20;99.90
74155;DHT22;62509;46.248;6.018;2024-01-30T04:20:31;4.10;99.90
74155;DHT22;62509;46.248;6.018;2024-01-30T04:25:37;4.00;99.90
74155;DHT22;62509;46.248;6.018;2024-01-30T04:30:40;3.80;99.90
74155;DHT22;62509;46.248;6.018;2024-01-30T04:35:44;3.80;99.90
74155;DHT22;62509;46.248;6.018;2024-01-30T04:40:48;3.70;99.90
74155;DHT22;62509;46.248;6.018;2024-01-30T04:45:52;3.80;99.90
74155;DHT22;62509;46.248;6.018;2024-01-30T04:50:55;3.80;99.90
74155;DHT22;62509;46.248;6.018;2024-01-30T04:56:00;3.80;99.90
74155;DHT22;62509;46.248;6.018;2024-01-30T05:01:04;3.80;99.90
74155;DHT22;62509;46.248;6.018;2024-01-30T05:06:08;3.80;99.90
74155;DHT22;62509;46.248;6.018;2024-01-30T05:11:14;3.80;99.90
74155;DHT22;62509;46.248;6.018;2024-01-30T05:16:17;3.80;99.90
74155;DHT22;62509;46.248;6.018;2024-01-30T05:21:21;3.80;99.90
74155;DHT22;62509;46.248;6.018;2024-01-30T05:26:25;3.80;99.90
74155;DHT22;62509;46.248;6.018;2024-01-30T05:31:29;3.80;99.90
74155;DHT22;62509;46.248;6.018;2024-01-30T05:36:32;3.80;99.90
74155;DHT22;62509;46.248;6.018;2024-01-30T05:41:37;3.80;99.90
74155;DHT22;62509;46.248;6.018;2024-01-30T05:46:40;3.70;99.90
74155;DHT22;62509;46.248;6.018;2024-01-30T05:51:44;3.70;99.90
74155;DHT22;62509;46.248;6.018;2024-01-30T05:56:49;3.70;99.90
74155;DHT22;62509;46.248;6.018;2024-01-30T06:01:53;3.70;99.90
74155;DHT22;62509;46.248;6.018;2024-01-30T06:06:56;3.80;99.90
74155;DHT22;62509;46.248;6.018;2024-01-30T06:12:06;3.90;99.90
74155;DHT22;62509;46.248;6.018;2024-01-30T06:17:10;3.90;99.90
74155;DHT22;62509;46.248;6.018;2024-01-30T06:22:13;3.90;99.90
74155;DHT22;62509;46.248;6.018;2024-01-30T06:27:18;3.80;99.90
74155;DHT22;62509;46.248;6.018;2024-01-30T06:32:22;3.80;99.90
74155;DHT22;62509;46.248;6.018;2024-01-30T06:37:26;3.70;99.90
74155;DHT22;62509;46.248;6.018;2024-01-30T06:42:31;3.70;99.90
74155;DHT22;62509;46.248;6.018;2024-01-30T06:47:34;3.70;99.90
74155;DHT22;62509;46.248;6.018;2024-01-30T06:52:38;3.80;99.90
74155;DHT22;62509;46.248;6.018;2024-01-30T06:57:43;3.80;99.90
74155;DHT22;62509;46.248;6.018;2024-01-30T07:02:48;3.90;99.90
74155;DHT22;62509;46.248;6.018;2024-01-30T07:07:52;4.00;99.90
74155;DHT22;62509;46.248;6.018;2024-01-30T07:12:58;4.00;99.90
74155;DHT22;62509;46.248;6.018;2024-01-30T07:18:01;4.10;99.90
74155;DHT22;62509;46.248;6.018;2024-01-30T07:23:05;4.20;99.90
74155;DHT22;62509;46.248;6.018;2024-01-30T07:28:10;4.20;99.90
74155;DHT22;62509;46.248;6.018;2024-01-30T07:33:14;4.20;99.90
74155;DHT22;62509;46.248;6.018;2024-01-30T07:38:17;4.20;99.90
74155;DHT22;62509;46.248;6.018;2024-01-30T07:43:22;4.30;99.90
74155;DHT22;62509;46.248;6.018;2024-01-30T07:48:26;4.40;99.90
74155;DHT22;62509;46.248;6.018;2024-01-30T07:53:29;4.50;99.90
74155;DHT22;62509;46.248;6.018;2024-01-30T07:58:34;4.40;99.90
74155;DHT22;62509;46.248;6.018;2024-01-30T08:03:38;4.40;99.90
74155;DHT22;62509;46.248;6.018;2024-01-30T08:08:43;4.50;99.90
74155;DHT22;62509;46.248;6.018;2024-01-30T08:13:48;4.60;99.90
74155;DHT22;62509;46.248;6.018;2024-01-30T08:18:52;4.70;99.90
74155;DHT22;62509;46.248;6.018;2024-01-30T08:23:59;4.80;99.90
74155;DHT22;62509;46.248;6.018;2024-01-30T08:29:04;4.90;99.90
74155;DHT22;62509;46.248;6.018;2024-01-30T08:34:07;5.00;99.90
74155;DHT22;62509;46.248;6.018;2024-01-30T08:39:11;5.00;99.90
74155;DHT22;62509;46.248;6.018;2024-01-30T08:44:16;5.00;99.90
74155;DHT22;62509;46.248;6.018;2024-01-30T08:49:19;5.00;99.90
74155;DHT22;62509;46.248;6.018;2024-01-30T08:54:23;5.10;99.90
74155;DHT22;62509;46.248;6.018;2024-01-30T08:59:29;5.30;99.90
74155;DHT22;62509;46.248;6.018;2024-01-30T09:04:32;5.40;99.90
74155;DHT22;62509;46.248;6.018;2024-01-30T09:09:37;5.60;99.90
74155;DHT22;62509;46.248;6.018;2024-01-30T09:14:43;5.70;99.90
74155;DHT22;62509;46.248;6.018;2024-01-30T09:19:46;5.90;99.90
74155;DHT22;62509;46.248;6.018;2024-01-30T09:24:50;6.00;99.90
74155;DHT22;62509;46.248;6.018;2024-01-30T09:29:55;6.10;99.90
74155;DHT22;62509;46.248;6.018;2024-01-30T09:34:58;6.20;99.90
74155;DHT22;62509;46.248;6.018;2024-01-30T09:40:02;6.30;99.90
74155;DHT22;62509;46.248;6.018;2024-01-30T09:45:08;6.50;99.90
74155;DHT22;62509;46.248;6.018;2024-01-30T09:50:14;6.60;99.90
74155;DHT22;62509;46.248;6.018;2024-01-30T09:55:18;6.80;99.90
74155;DHT22;62509;46.248;6.018;2024-01-30T10:00:23;6.90;99.90
74155;DHT22;62509;46.248;6.018;2024-01-30T10:05:29;6.90;99.90
74155;DHT22;62509;46.248;6.018;2024-01-30T10:10:35;7.00;99.90
74155;DHT22;62509;46.248;6.018;2024-01-30T10:15:40;7.20;99.90
74155;DHT22;62509;46.248;6.018;2024-01-30T10:20:44;7.50;99.90
74155;DHT22;62509;46.248;6.018;2024-01-30T10:25:49;7.80;99.90
74155;DHT22;62509;46.248;6.018;2024-01-30T10:30:58;8.20;99.90
74155;DHT22;62509;46.248;6.018;2024-01-30T10:36:07;8.50;99.90
74155;DHT22;62509;46.248;6.018;2024-01-30T10:41:10;8.70;99.90
74155;DHT22;62509;46.248;6.018;2024-01-30T10:46:18;8.90;99.90
74155;DHT22;62509;46.248;6.018;2024-01-30T10:51:23;9.10;99.90
74155;DHT22;62509;46.248;6.018;2024-01-30T10:56:27;9.30;99.90
74155;DHT22;62509;46.248;6.018;2024-01-30T11:01:32;9.50;99.90
74155;DHT22;62509;46.248;6.018;2024-01-30T11:06:40;9.60;99.90
74155;DHT22;62509;46.248;6.018;2024-01-30T11:11:50;9.60;99.90
74155;DHT22;62509;46.248;6.018;2024-01-30T11:16:58;9.70;99.90
74155;DHT22;62509;46.248;6.018;2024-01-30T11:22:02;9.80;99.90
74155;DHT22;62509;46.248;6.018;2024-01-30T11:27:11;9.90;99.90
74155;DHT22;62509;46.248;6.018;2024-01-30T11:32:21;10.00;99.90
74155;DHT22;62509;46.248;6.018;2024-01-30T11:37:25;10.10;99.90
74155;DHT22;62509;46.248;6.018;2024-01-30T11:42:29;10.20;99.90
74155;DHT22;62509;46.248;6.018;2024-01-30T11:47:36;10.30;99.90
74155;DHT22;62509;46.248;6.018;2024-01-30T11:52:45;10.30;99.90
74155;DHT22;62509;46.248;6.018;2024-01-30T11:57:49;10.30;99.90
74155;DHT22;62509;46.248;6.018;2024-01-30T12:02:54;10.40;99.90
74155;DHT22;62509;46.248;6.018;2024-01-30T12:07:58;10.40;99.90
74155;DHT22;62509;46.248;6.018;2024-01-30T12:13:03;10.50;99.90
74155;DHT22;62509;46.248;6.018;2024-01-30T12:18:10;10.70;99.90
74155;DHT22;62509;46.248;6.018;2024-01-30T12:23:37;10.80;99.90
74155;DHT22;62509;46.248;6.018;2024-01-30T12:28:47;10.90;99.90
74155;DHT22;62509;46.248;6.018;2024-01-30T12:33:52;11.10;99.90
74155;DHT22;62509;46.248;6.018;2024-01-30T12:38:56;11.20;99.90
74155;DHT22;62509;46.248;6.018;2024-01-30T12:44:00;11.30;99.90
74155;DHT22;62509;46.248;6.018;2024-01-30T12:49:05;11.30;99.90
74155;DHT22;62509;46.248;6.018;2024-01-30T12:54:09;11.40;99.90
74155;DHT22;62509;46.248;6.018;2024-01-30T12:59:12;11.40;99.90
74155;DHT22;62509;46.248;6.018;2024-01-30T13:04:17;11.40;99.90
74155;DHT22;62509;46.248;6.018;2024-01-30T13:09:20;11.50;99.90
74155;DHT22;62509;46.248;6.018;2024-01-30T13:14:24;11.50;99.90
74155;DHT22;62509;46.248;6.018;2024-01-30T13:19:29;11.70;99.90
74155;DHT22;62509;46.248;6.018;2024-01-30T13:24:33;11.70;99.90
74155;DHT22;62509;46.248;6.018;2024-01-30T13:29:36;11.80;99.90
74155;DHT22;62509;46.248;6.018;2024-01-30T13:34:41;11.90;99.90
74155;DHT22;62509;46.248;6.018;2024-01-30T13:39:45;12.00;99.90
74155;DHT22;62509;46.248;6.018;2024-01-30T13:44:48;12.20;99.90
74155;DHT22;62509;46.248;6.018;2024-01-30T13:49:54;12.30;99.90
74155;DHT22;62509;46.248;6.018;2024-01-30T13:54:58;12.30;99.90
74155;DHT22;62509;46.248;6.018;2024-01-30T14:00:01;12.30;99.80
74155;DHT22;62509;46.248;6.018;2024-01-30T14:05:09;12.30;99.80
74155;DHT22;62509;46.248;6.018;2024-01-30T14:10:12;12.40;99.80
74155;DHT22;62509;46.248;6.018;2024-01-30T14:15:16;12.40;99.80
74155;DHT22;62509;46.248;6.018;2024-01-30T14:20:31;12.30;99.70
74155;DHT22;62509;46.248;6.018;2024-01-30T14:25:34;12.30;99.70
74155;DHT22;62509;46.248;6.018;2024-01-30T14:30:38;12.20;99.70
74155;DHT22;62509;46.248;6.018;2024-01-30T14:35:43;12.20;99.80
74155;DHT22;62509;46.248;6.018;2024-01-30T14:40:46;12.20;99.80
74155;DHT22;62509;46.248;6.018;2024-01-30T14:45:50;12.20;99.80
74155;DHT22;62509;46.248;6.018;2024-01-30T14:50:55;12.20;99.80
74155;DHT22;62509;46.248;6.018;2024-01-30T14:55:59;12.20;99.80
74155;DHT22;62509;46.248;6.018;2024-01-30T15:01:04;12.20;99.80
74155;DHT22;62509;46.248;6.018;2024-01-30T15:06:11;12.30;99.90
74155;DHT22;62509;46.248;6.018;2024-01-30T15:11:15;12.30;99.80
74155;DHT22;62509;46.248;6.018;2024-01-30T15:16:21;12.30;99.80
74155;DHT22;62509;46.248;6.018;2024-01-30T15:21:27;12.30;99.80
74155;DHT22;62509;46.248;6.018;2024-01-30T15:26:31;12.30;99.80
74155;DHT22;62509;46.248;6.018;2024-01-30T15:31:35;12.30;99.80
74155;DHT22;62509;46.248;6.018;2024-01-30T15:36:40;12.30;99.80
74155;DHT22;62509;46.248;6.018;2024-01-30T15:41:44;12.30;99.80
74155;DHT22;62509;46.248;6.018;2024-01-30T15:46:47;12.20;99.80
74155;DHT22;62509;46.248;6.018;2024-01-30T15:51:52;12.10;99.90
74155;DHT22;62509;46.248;6.018;2024-01-30T15:56:56;12.10;99.90
74155;DHT22;62509;46.248;6.018;2024-01-30T16:01:59;12.00;99.90
74155;DHT22;62509;46.248;6.018;2024-01-30T16:07:04;11.90;99.90
74155;DHT22;62509;46.248;6.018;2024-01-30T16:12:08;11.90;99.90
74155;DHT22;62509;46.248;6.018;2024-01-30T16:17:12;11.80;99.90
74155;DHT22;62509;46.248;6.018;2024-01-30T16:22:17;11.70;99.90
74155;DHT22;62509;46.248;6.018;2024-01-30T16:27:34;11.60;99.90
74155;DHT22;62509;46.248;6.018;2024-01-30T16:32:38;11.50;99.90
74155;DHT22;62509;46.248;6.018;2024-01-30T16:37:43;11.30;99.90
74155;DHT22;62509;46.248;6.018;2024-01-30T16:42:47;11.20;99.90
74155;DHT22;62509;46.248;6.018;2024-01-30T16:47:51;11.00;99.90
74155;DHT22;62509;46.248;6.018;2024-01-30T16:52:58;10.90;99.90
74155;DHT22;62509;46.248;6.018;2024-01-30T16:58:03;10.80;99.90
74155;DHT22;62509;46.248;6.018;2024-01-30T17:03:06;10.60;99.90
74155;DHT22;62509;46.248;6.018;2024-01-30T17:08:12;10.50;99.90
74155;DHT22;62509;46.248;6.018;2024-01-30T17:13:15;10.20;99.90
74155;DHT22;62509;46.248;6.018;2024-01-30T17:18:19;10.10;99.90
74155;DHT22;62509;46.248;6.018;2024-01-30T17:23:24;10.00;99.90
74155;DHT22;62509;46.248;6.018;2024-01-30T17:28:28;9.80;99.90
74155;DHT22;62509;46.248;6.018;2024-01-30T17:33:32;9.60;99.90
74155;DHT22;62509;46.248;6.018;2024-01-30T17:38:39;9.40;99.90
74155;DHT22;62509;46.248;6.018;2024-01-30T17:43:43;9.30;99.90
74155;DHT22;62509;46.248;6.018;2024-01-30T17:48:46;9.20;99.90
74155;DHT22;62509;46.248;6.018;2024-01-30T17:53:53;9.10;99.90
74155;DHT22;62509;46.248;6.018;2024-01-30T17:58:57;9.00;99.90
74155;DHT22;62509;46.248;6.018;2024-01-30T18:04:01;8.90;99.90
74155;DHT22;62509;46.248;6.018;2024-01-30T18:09:06;8.90;99.90
74155;DHT22;62509;46.248;6.018;2024-01-30T18:14:10;8.80;99.90
74155;DHT22;62509;46.248;6.018;2024-01-30T18:19:13;8.70;99.90
74155;DHT22;62509;46.248;6.018;2024-01-30T18:24:18;8.70;99.90
74155;DHT22;62509;46.248;6.018;2024-01-30T18:29:23;8.50;99.90
74155;DHT22;62509;46.248;6.018;2024-01-30T18:34:28;8.40;99.90
74155;DHT22;62509;46.248;6.018;2024-01-30T18:39:34;8.30;99.90
74155;DHT22;62509;46.248;6.018;2024-01-30T18:44:40;8.20;99.90
74155;DHT22;62509;46.248;6.018;2024-01-30T18:49:43;8.00;99.90
74155;DHT22;62509;46.248;6.018;2024-01-30T18:54:48;7.90;99.90
74155;DHT22;62509;46.248;6.018;2024-01-30T18:59:51;7.80;99.90
74155;DHT22;62509;46.248;6.018;2024-01-30T19:04:55;7.80;99.90
74155;DHT22;62509;46.248;6.018;2024-01-30T19:10:02;7.70;99.90
74155;DHT22;62509;46.248;6.018;2024-01-30T19:15:07;7.60;99.90
74155;DHT22;62509;46.248;6.018;2024-01-30T19:20:11;7.50;99.90
74155;DHT22;62509;46.248;6.018;2024-01-30T19:25:16;7.50;99.90
74155;DHT22;62509;46.248;6.018;2024-01-30T19:30:20;7.40;99.90
74155;DHT22;62509;46.248;6.018;2024-01-30T19:35:23;7.30;99.90
74155;DHT22;62509;46.248;6.018;2024-01-30T19:40:28;7.20;99.90
74155;DHT22;62509;46.248;6.018;2024-01-30T19:45:32;7.20;99.90
74155;DHT22;62509;46.248;6.018;2024-01-30T19:50:35;7.10;99.90
74155;DHT22;62509;46.248;6.018;2024-01-30T19:55:40;6.90;99.90
74155;DHT22;62509;46.248;6.018;2024-01-30T20:00:44;6.80;99.90
74155;DHT22;62509;46.248;6.018;2024-01-30T20:05:48;6.80;99.90
74155;DHT22;62509;46.248;6.018;2024-01-30T20:10:53;6.70;99.90
74155;DHT22;62509;46.248;6.018;2024-01-30T20:15:57;6.60;99.90
74155;DHT22;62509;46.248;6.018;2024-01-30T20:21:03;6.60;99.90
74155;DHT22;62509;46.248;6.018;2024-01-30T20:26:09;6.50;99.90
74155;DHT22;62509;46.248;6.018;2024-01-30T20:31:13;6.60;99.90
74155;DHT22;62509;46.248;6.018;2024-01-30T20:36:18;6.50;99.90
74155;DHT22;62509;46.248;6.018;2024-01-30T20:41:23;6.40;99.90
74155;DHT22;62509;46.248;6.018;2024-01-30T20:46:27;6.40;99.90
74155;DHT22;62509;46.248;6.018;2024-01-30T20:51:30;6.30;99.90
74155;DHT22;62509;46.248;6.018;2024-01-30T20:56:35;6.20;99.90
74155;DHT22;62509;46.248;6.018;2024-01-30T21:01:38;6.20;99.90
74155;DHT22;62509;46.248;6.018;2024-01-30T21:06:42;6.10;99.90
74155;DHT22;62509;46.248;6.018;2024-01-30T21:11:48;6.10;99.90
74155;DHT22;62509;46.248;6.018;2024-01-30T21:16:52;6.10;99.90
74155;DHT22;62509;46.248;6.018;2024-01-30T21:21:55;6.00;99.90
74155;DHT22;62509;46.248;6.018;2024-01-30T21:27:00;5.90;99.90
74155;DHT22;62509;46.248;6.018;2024-01-30T21:32:04;5.80;99.90
74155;DHT22;62509;46.248;6.018;2024-01-30T21:37:07;5.70;99.90
74155;DHT22;62509;46.248;6.018;2024-01-30T21:42:12;5.60;99.90
74155;DHT22;62509;46.248;6.018;2024-01-30T21:47:15;5.60;99.90
74155;DHT22;62509;46.248;6.018;2024-01-30T21:52:19;5.50;99.90
74155;DHT22;62509;46.248;6.018;2024-01-30T21:57:24;5.40;99.90
74155;DHT22;62509;46.248;6.018;2024-01-30T22:02:27;5.40;99.90
74155;DHT22;62509;46.248;6.018;2024-01-30T22:07:30;5.40;99.90
74155;DHT22;62509;46.248;6.018;2024-01-30T22:12:35;5.30;99.90
74155;DHT22;62509;46.248;6.018;2024-01-30T22:17:40;5.30;99.90
74155;DHT22;62509;46.248;6.018;2024-01-30T22:22:43;5.20;99.90
74155;DHT22;62509;46.248;6.018;2024-01-30T22:27:48;5.20;99.90
74155;DHT22;62509;46.248;6.018;2024-01-30T22:32:52;5.20;99.90
74155;DHT22;62509;46.248;6.018;2024-01-30T22:37:55;5.10;99.90
74155;DHT22;62509;46.248;6.018;2024-01-30T22:43:02;5.00;99.90
74155;DHT22;62509;46.248;6.018;2024-01-30T22:48:06;4.90;99.90
74155;DHT22;62509;46.248;6.018;2024-01-30T22:53:10;4.90;99.90
74155;DHT22;62509;46.248;6.018;2024-01-30T22:58:15;4.90;99.90
74155;DHT22;62509;46.248;6.018;2024-01-30T23:03:18;4.90;99.90
74155;DHT22;62509;46.248;6.018;2024-01-30T23:08:24;4.90;99.90
74155;DHT22;62509;46.248;6.018;2024-01-30T23:13:29;4.80;99.90
74155;DHT22;62509;46.248;6.018;2024-01-30T23:18:33;4.80;99.90
74155;DHT22;62509;46.248;6.018;2024-01-30T23:23:36;4.70;99.90
74155;DHT22;62509;46.248;6.018;2024-01-30T23:28:52;4.70;99.90
74155;DHT22;62509;46.248;6.018;2024-01-30T23:33:59;4.60;99.90
74155;DHT22;62509;46.248;6.018;2024-01-30T23:39:03;4.50;99.90
74155;DHT22;62509;46.248;6.018;2024-01-30T23:44:08;4.50;99.90
74155;DHT22;62509;46.248;6.018;2024-01-30T23:49:11;4.60;99.90
74155;DHT22;62509;46.248;6.018;2024-01-30T23:54:15;4.50;99.90
74155;DHT22;62509;46.248;6.018;2024-01-30T23:59:20;4.50;99.90
